sensor_id;sensor_type;location;lat;lon;timestamp;pressure;altitude;pressure_sealevel;temperature;humidity
38880;BME280;25887;30.194;-97.880;2023-02-02T20:18:03;99326.38;;;5.32;62.58
38880;BME280;25887;30.194;-97.880;2023-02-02T20:23:21;99331.91;;;5.45;62.81
38880;BME280;25887;30.194;-97.880;2023-02-02T20:25:52;99333.69;;;5.47;62.80
38880;BME280;25887;30.194;-97.880;2023-02-02T20:28:31;99343.16;;;5.51;63.22
38880;BME280;25887;30.194;-97.880;2023-02-02T20:31:00;99343.31;;;5.54;63.29
38880;BME280;25887;30.194;-97.880;2023-02-02T20:33:26;99351.09;;;5.59;63.42
38880;BME280;25887;30.194;-97.880;2023-02-02T20:35:52;99341.94;;;5.64;62.79
38880;BME280;25887;30.194;-97.880;2023-02-02T20:38:22;99354.03;;;5.70;63.31
38880;BME280;25887;30.194;-97.880;2023-02-02T20:40:54;99374.66;;;5.76;63.43
38880;BME280;25887;30.194;-97.880;2023-02-02T20:43:20;99370.50;;;5.79;63.17
38880;BME280;25887;30.194;-97.880;2023-02-02T20:45:46;99370.59;;;5.82;63.00
38880;BME280;25887;30.194;-97.880;2023-02-02T20:48:12;99380.16;;;5.88;63.03
38880;BME280;25887;30.194;-97.880;2023-02-02T20:50:39;99363.38;;;5.93;62.79
38880;BME280;25887;30.194;-97.880;2023-02-02T20:53:05;99365.19;;;5.97;63.23
38880;BME280;25887;30.194;-97.880;2023-02-02T20:55:32;99366.22;;;6.02;63.12
38880;BME280;25887;30.194;-97.880;2023-02-02T20:58:13;99369.81;;;6.07;62.70
38880;BME280;25887;30.194;-97.880;2023-02-02T21:00:39;99375.06;;;6.12;62.91
38880;BME280;25887;30.194;-97.880;2023-02-02T21:03:05;99367.56;;;6.17;62.94
38880;BME280;25887;30.194;-97.880;2023-02-02T21:05:31;99354.84;;;6.18;62.89
38880;BME280;25887;30.194;-97.880;2023-02-02T21:07:57;99355.81;;;6.22;62.65
38880;BME280;25887;30.194;-97.880;2023-02-02T21:10:41;99359.31;;;6.24;62.67
38880;BME280;25887;30.194;-97.880;2023-02-02T21:13:06;99361.00;;;6.23;63.05
38880;BME280;25887;30.194;-97.880;2023-02-02T21:15:32;99362.75;;;6.26;62.92
38880;BME280;25887;30.194;-97.880;2023-02-02T21:17:58;99370.59;;;6.30;62.77
38880;BME280;25887;30.194;-97.880;2023-02-02T21:20:24;99367.25;;;6.33;62.60
38880;BME280;25887;30.194;-97.880;2023-02-02T21:23:08;99381.75;;;6.34;62.54
38880;BME280;25887;30.194;-97.880;2023-02-02T21:25:38;99397.91;;;6.34;62.81
38880;BME280;25887;30.194;-97.880;2023-02-02T21:28:04;99402.25;;;6.37;62.79
38880;BME280;25887;30.194;-97.880;2023-02-02T21:30:30;99419.38;;;6.39;62.70
38880;BME280;25887;30.194;-97.880;2023-02-02T21:32:56;99426.25;;;6.42;62.67
38880;BME280;25887;30.194;-97.880;2023-02-02T21:35:23;99428.84;;;6.43;62.73
38880;BME280;25887;30.194;-97.880;2023-02-02T21:37:50;99433.22;;;6.46;62.39
38880;BME280;25887;30.194;-97.880;2023-02-02T21:40:48;99435.03;;;6.50;62.81
38880;BME280;25887;30.194;-97.880;2023-02-02T21:43:16;99417.97;;;6.49;62.75
38880;BME280;25887;30.194;-97.880;2023-02-02T21:45:47;99416.28;;;6.50;62.52
38880;BME280;25887;30.194;-97.880;2023-02-02T21:50:43;99417.97;;;6.49;62.68
38880;BME280;25887;30.194;-97.880;2023-02-02T21:55:38;99446.91;;;6.50;62.37
38880;BME280;25887;30.194;-97.880;2023-02-02T21:58:26;99446.06;;;6.49;62.28
38880;BME280;25887;30.194;-97.880;2023-02-02T22:00:57;99444.31;;;6.48;62.53
38880;BME280;25887;30.194;-97.880;2023-02-02T22:05:49;99460.38;;;6.46;62.36
38880;BME280;25887;30.194;-97.880;2023-02-02T22:11:21;99484.13;;;6.43;62.64
38880;BME280;25887;30.194;-97.880;2023-02-02T22:13:48;99487.50;;;6.42;62.29
38880;BME280;25887;30.194;-97.880;2023-02-02T22:16:18;99483.22;;;6.41;62.31
38880;BME280;25887;30.194;-97.880;2023-02-02T22:18:47;99491.69;;;6.40;62.32
38880;BME280;25887;30.194;-97.880;2023-02-02T22:21:14;99493.31;;;6.38;62.38
38880;BME280;25887;30.194;-97.880;2023-02-02T22:23:41;99491.56;;;6.37;62.25
38880;BME280;25887;30.194;-97.880;2023-02-02T22:26:15;99505.97;;;6.35;62.23
38880;BME280;25887;30.194;-97.880;2023-02-02T22:28:44;99511.94;;;6.35;62.42
38880;BME280;25887;30.194;-97.880;2023-02-02T22:31:10;99509.44;;;6.37;62.31
38880;BME280;25887;30.194;-97.880;2023-02-02T22:33:35;99509.44;;;6.37;62.61
38880;BME280;25887;30.194;-97.880;2023-02-02T22:36:01;99509.44;;;6.37;62.15
38880;BME280;25887;30.194;-97.880;2023-02-02T22:38:27;99513.72;;;6.38;62.11
38880;BME280;25887;30.194;-97.880;2023-02-02T22:40:53;99523.00;;;6.36;62.43
38880;BME280;25887;30.194;-97.880;2023-02-02T22:43:19;99528.16;;;6.37;62.19
38880;BME280;25887;30.194;-97.880;2023-02-02T22:45:46;99546.91;;;6.38;62.37
38880;BME280;25887;30.194;-97.880;2023-02-02T22:48:12;99545.25;;;6.38;62.08
38880;BME280;25887;30.194;-97.880;2023-02-02T22:50:39;99557.13;;;6.38;62.39
38880;BME280;25887;30.194;-97.880;2023-02-02T22:53:05;99553.66;;;6.36;62.22
38880;BME280;25887;30.194;-97.880;2023-02-02T22:55:59;99568.09;;;6.35;62.27
38880;BME280;25887;30.194;-97.880;2023-02-02T22:58:25;99572.28;;;6.33;62.36
38880;BME280;25887;30.194;-97.880;2023-02-02T23:00:50;99573.97;;;6.33;62.13
38880;BME280;25887;30.194;-97.880;2023-02-02T23:03:17;99568.84;;;6.33;62.21
38880;BME280;25887;30.194;-97.880;2023-02-02T23:05:44;99589.22;;;6.31;62.36
38880;BME280;25887;30.194;-97.880;2023-02-02T23:08:28;99590.03;;;6.30;62.39
38880;BME280;25887;30.194;-97.880;2023-02-02T23:10:59;99596.88;;;6.31;62.35
38880;BME280;25887;30.194;-97.880;2023-02-02T23:13:25;99590.09;;;6.32;62.32
38880;BME280;25887;30.194;-97.880;2023-02-02T23:15:51;99589.97;;;6.29;62.35
38880;BME280;25887;30.194;-97.880;2023-02-02T23:18:17;99584.81;;;6.27;62.54
38880;BME280;25887;30.194;-97.880;2023-02-02T23:20:43;99586.44;;;6.25;62.42
38880;BME280;25887;30.194;-97.880;2023-02-02T23:23:27;99581.34;;;6.25;62.47
38880;BME280;25887;30.194;-97.880;2023-02-02T23:25:52;99592.41;;;6.26;62.58
38880;BME280;25887;30.194;-97.880;2023-02-02T23:28:28;99585.53;;;6.23;62.24
38880;BME280;25887;30.194;-97.880;2023-02-02T23:30:54;99580.34;;;6.22;62.50
38880;BME280;25887;30.194;-97.880;2023-02-02T23:33:23;99574.38;;;6.21;62.46
38880;BME280;25887;30.194;-97.880;2023-02-02T23:35:49;99553.97;;;6.21;62.55
38880;BME280;25887;30.194;-97.880;2023-02-02T23:38:15;99558.19;;;6.21;62.45
38880;BME280;25887;30.194;-97.880;2023-02-02T23:40:42;99563.31;;;6.21;62.16
38880;BME280;25887;30.194;-97.880;2023-02-02T23:43:08;99559.94;;;6.22;62.51
38880;BME280;25887;30.194;-97.880;2023-02-02T23:45:34;99568.41;;;6.21;62.49
38880;BME280;25887;30.194;-97.880;2023-02-02T23:48:00;99573.50;;;6.21;62.80
38880;BME280;25887;30.194;-97.880;2023-02-02T23:50:26;99574.31;;;6.20;62.56
38880;BME280;25887;30.194;-97.880;2023-02-02T23:52:52;99581.97;;;6.20;62.56
38880;BME280;25887;30.194;-97.880;2023-02-02T23:55:18;99587.09;;;6.20;62.55
38880;BME280;25887;30.194;-97.880;2023-02-02T23:57:44;99592.19;;;6.20;62.72
